首页
METAR-TAF:

METAR-TAF

机场 :

阿斯塔纳国际机场

阿斯塔納, 哈萨克斯坦

纬度: 51-12N, 经度: 071-27E, 海拔: 355米

当前天气观测

该预报发布于26分钟前的11:00 UTC
风速6节,风向西转西北,在西北转西北之间变化
温度 26°C
湿度 58%
气压 1004 hPa
能见度10公里或以上
少量云层高于3600英尺, 积雨云.

METAR: UACC 231100Z 30003MPS 270V330 9999 FEW036CB 26/17 Q1004 NOSIG RMK QFE722/0963

时间: 17:26 (11:26 UTC)

预报

该预报发布于6小时和25分钟前的05:01 UTC
预报有效从23日的 06点(UTC)到 24日的 06点(UTC)
风速12节,风向西转西南
能见度10公里或以上
散云层高于4000英尺, 积雨云.
多云层高于5000英尺
短暂存在
从 23日的 06点(UTC)到 23日的 15点(UTC)
风速35节,风向多变
能見度: 3100
多云层高于2000英尺, 积雨云.
雷暴, 小雨, 冰雹, 飑
成为
从 23日的 15点(UTC)到 23日的 17点(UTC)
风速2节,风向多变
散云层高于5000英尺
多云层高于10000英尺
短暂存在
从 23日的 21点(UTC)到 24日的 03点(UTC)
风速6节,风向
成为
从 24日的 03点(UTC)到 24日的 05点(UTC)
风速12节,风向西转西南
散云层高于4000英尺, 积雨云.

TAF: UACC 230501Z 2306/2406 24006MPS 9999 SCT040CB BKN050 TX30/2310Z TN18/2323Z TEMPO 2306/2315 VRB18MPS 3100 -TSRAGR SQ BKN020CB BECMG 2315/2317 VRB01MPS SCT050 BKN100 TEMPO 2321/2403 18003MPS BECMG 2403/2405 25006MPS SCT040CB

超过4000个机场的气象观测和天气预报(METAR&TAF报告)。

可查询的气象台以黄色和红色小点在地图上表示。

将鼠标移到小点上方,可查看气象台名称。

然后点击查看天气观测和预报。

如需切换地图:点击带黑十字的绿色按钮放大地图;点击带横线的绿色按钮缩小地图;或者点击绿色箭头查看邻近地区的地图。


METAR-TAF: